»·PEaware :: PAA576 KSNA-KASE

PAA576 :: KSNA-KASE

FLIGHT INFORMATION

Flight Status: Arrived
Operator:
PanAm
More flights by this operator :: More flights under this callsign
Pilot: Anonymous 8274 (8274)
Aircraft: BOEING 727-200
(B722)
More flights by this aircraft type
Origin: KSNA John Wayne-Orange Co
United States
Destination: KASE Aspen-Pitkin Co/Sardy
United States
More flights between these airports :: More routes between these airports
Route: +MTJ V361 DBL
File this flight plan on PilotEdge
Remarks:
Altitude:
(Current/Filed)
31,000ft
Speed:
(Current/Filed)
475kts
Departed: 02-Sep-18 11:47 AM
Arrived: 02-Sep-18 01:35 PM
Distance/Time
Traveled:
626nm/1:48
Distance/Time
To Go:
Arrived

Flight Plot

Page will automatically refresh every two minutes.

Flight plan parsing failed; only flown route is shown


Map Options




Map Legend


Flown Route
Filed Route
Departure Airport
Arrival Airport
Navaid (VOR, NDB)
Fix

Horizontal Profiles

Position Reports

Time Latitude Longitude Heading Altitude Ground
Speed
02-Sep-18 11:24 33.676766 -117.864042 117 68ft 0kts
02-Sep-18 11:25 33.676766 -117.864042 117 68ft 0kts
02-Sep-18 11:26 33.676766 -117.864042 117 68ft 0kts
02-Sep-18 11:27 33.676766 -117.864042 117 68ft 0kts
02-Sep-18 11:28 33.676766 -117.864042 117 68ft 0kts
02-Sep-18 11:29 33.676766 -117.864042 117 68ft 0kts
02-Sep-18 11:30 33.676766 -117.864042 117 68ft 0kts
02-Sep-18 11:31 33.676766 -117.864042 117 68ft 0kts
02-Sep-18 11:32 33.676766 -117.864042 117 68ft 0kts
02-Sep-18 11:33 33.676766 -117.864042 117 68ft 0kts
02-Sep-18 11:34 33.676766 -117.864042 117 68ft 0kts
02-Sep-18 11:35 33.676766 -117.864043 117 68ft 0kts
02-Sep-18 11:36 33.676857 -117.864253 117 68ft 2kts
02-Sep-18 11:37 33.676823 -117.864739 22 68ft 1kts
02-Sep-18 11:38 33.676781 -117.864762 27 68ft 0kts
02-Sep-18 11:39 33.676781 -117.864762 27 68ft 0kts
02-Sep-18 11:40 33.676781 -117.864762 27 68ft 0kts
02-Sep-18 11:41 33.676781 -117.864762 27 68ft 0kts
02-Sep-18 11:42 33.676781 -117.864762 27 68ft 0kts
02-Sep-18 11:43 33.676781 -117.864762 27 68ft 0kts
02-Sep-18 11:44 33.677405 -117.864367 27 68ft 10kts
02-Sep-18 11:45 33.680200 -117.862656 1 68ft 9kts
02-Sep-18 11:46 33.680617 -117.862974 298 68ft 0kts
02-Sep-18 11:47 33.680617 -117.862974 298 68ft 0kts
02-Sep-18 11:48 33.681251 -117.865280 221 68ft 16kts
02-Sep-18 11:49 33.654517 -117.882273 208 900ft 160kts
02-Sep-18 11:50 33.606312 -117.895144 188 2943ft 206kts
02-Sep-18 11:51 33.543500 -117.907133 187 4989ft 272kts
02-Sep-18 11:51 33.496708 -117.955945 257 7619ft 293kts
02-Sep-18 11:53 33.498142 -118.080872 298 10510ft 338kts
02-Sep-18 11:54 33.576765 -118.122929 11 13351ft 331kts
02-Sep-18 11:55 33.664751 -118.097509 16 16097ft 333kts
02-Sep-18 11:55 33.741761 -118.071304 14 17396ft 361kts
02-Sep-18 11:56 33.832174 -118.021343 41 19310ft 381kts
02-Sep-18 11:58 33.929640 -117.921419 34 20730ft 411kts
02-Sep-18 11:58 34.008002 -117.854887 34 22111ft 421kts
02-Sep-18 11:59 34.105554 -117.778257 41 22960ft 411kts
02-Sep-18 12:01 34.192799 -117.664075 53 24379ft 394kts
02-Sep-18 12:01 34.246798 -117.573877 53 25236ft 406kts
02-Sep-18 12:02 34.314293 -117.465445 46 26578ft 406kts
02-Sep-18 12:03 34.389167 -117.361573 46 27601ft 414kts
02-Sep-18 12:04 34.465190 -117.256195 46 28535ft 421kts
02-Sep-18 12:05 34.542917 -117.148581 46 29404ft 427kts
02-Sep-18 12:06 34.621582 -117.039739 46 30205ft 433kts
02-Sep-18 12:07 34.703696 -116.932655 43 30796ft 440kts
02-Sep-18 12:08 34.790582 -116.824359 43 30944ft 457kts
02-Sep-18 12:09 34.872318 -116.702226 47 30942ft 476kts
02-Sep-18 12:10 34.961467 -116.580803 44 30945ft 483kts
02-Sep-18 12:11 35.054947 -116.465030 43 30965ft 479kts
02-Sep-18 12:12 35.144636 -116.346523 45 30969ft 478kts
02-Sep-18 12:13 35.235990 -116.231565 43 30967ft 476kts
02-Sep-18 12:14 35.328749 -116.115856 43 30967ft 475kts
02-Sep-18 12:15 35.418544 -115.998176 45 30967ft 475kts
02-Sep-18 12:16 35.507917 -115.878454 45 30940ft 475kts
02-Sep-18 12:17 35.596723 -115.759444 45 30940ft 475kts
02-Sep-18 12:18 35.685684 -115.640184 45 30940ft 475kts
02-Sep-18 12:19 35.777328 -115.524274 42 30940ft 473kts
02-Sep-18 12:20 35.871225 -115.410874 42 30887ft 475kts
02-Sep-18 12:21 35.963576 -115.300519 40 30938ft 475kts
02-Sep-18 12:22 36.057576 -115.186758 57 30880ft 480kts
02-Sep-18 12:23 36.076686 -115.024385 87 30885ft 487kts
02-Sep-18 12:24 36.079541 -114.856934 87 30858ft 489kts
02-Sep-18 12:25 36.082556 -114.689475 87 30911ft 490kts
02-Sep-18 12:26 36.085721 -114.521098 87 30913ft 492kts
02-Sep-18 12:27 36.088901 -114.352657 89 30910ft 494kts
02-Sep-18 12:28 36.078998 -114.186834 93 30911ft 495kts
02-Sep-18 12:29 36.070999 -114.017249 91 30912ft 496kts
02-Sep-18 12:30 36.067632 -113.847198 89 30966ft 496kts
02-Sep-18 12:31 36.065647 -113.676898 86 31019ft 495kts
02-Sep-18 12:32 36.069835 -113.506574 86 31021ft 497kts
02-Sep-18 12:33 36.074043 -113.339338 87 31020ft 498kts
02-Sep-18 12:34 36.078509 -113.170137 86 31019ft 499kts
02-Sep-18 12:35 36.083161 -112.998896 86 31020ft 500kts
02-Sep-18 12:36 36.085276 -112.828124 88 31016ft 501kts
02-Sep-18 12:37 36.083950 -112.656308 88 31159ft 500kts
02-Sep-18 12:38 36.089006 -112.485667 83 31237ft 499kts
02-Sep-18 12:39 36.099529 -112.317485 83 31234ft 502kts
02-Sep-18 12:40 36.107622 -112.152400 85 31239ft 503kts
02-Sep-18 12:41 36.114801 -111.979558 85 31236ft 504kts
02-Sep-18 12:42 36.123516 -111.806814 85 31243ft 505kts
02-Sep-18 12:43 36.130174 -111.634029 85 31241ft 502kts
02-Sep-18 12:44 36.135692 -111.462534 86 31234ft 496kts
02-Sep-18 12:45 36.142038 -111.299922 87 31237ft 491kts
02-Sep-18 12:46 36.192031 -111.151988 40 31190ft 484kts
02-Sep-18 12:47 36.283344 -111.034314 53 31024ft 472kts
02-Sep-18 12:48 36.363783 -110.907826 58 31013ft 466kts
02-Sep-18 12:49 36.435761 -110.774218 58 31022ft 470kts
02-Sep-18 12:50 36.508548 -110.638731 58 31022ft 475kts
02-Sep-18 12:51 36.581978 -110.501995 58 31023ft 480kts
02-Sep-18 12:52 36.656016 -110.363385 58 31023ft 484kts
02-Sep-18 12:53 36.728241 -110.228808 58 31023ft 488kts
02-Sep-18 12:54 36.803603 -110.088417 58 31161ft 488kts
02-Sep-18 12:55 36.879270 -109.947559 58 31186ft 492kts
02-Sep-18 12:56 36.955821 -109.805007 58 31187ft 496kts
02-Sep-18 12:57 37.035165 -109.663847 55 31187ft 499kts
02-Sep-18 12:58 37.116973 -109.527029 54 31182ft 502kts
02-Sep-18 12:59 37.199155 -109.385893 54 31184ft 505kts
02-Sep-18 13:00 37.276836 -109.249919 55 31182ft 508kts
02-Sep-18 13:01 37.359376 -109.105653 55 31131ft 511kts
02-Sep-18 13:02 37.442242 -108.960981 54 31148ft 513kts
02-Sep-18 13:03 37.525864 -108.815384 54 31124ft 515kts
02-Sep-18 13:04 37.609868 -108.669307 54 31131ft 517kts
02-Sep-18 13:05 37.693756 -108.523293 54 31132ft 519kts
02-Sep-18 13:06 37.778124 -108.376560 54 31133ft 520kts
02-Sep-18 13:07 37.860734 -108.238997 42 31211ft 519kts
02-Sep-18 13:08 37.989275 -108.164165 19 31368ft 513kts
02-Sep-18 13:09 38.117445 -108.103029 19 31372ft 516kts
02-Sep-18 13:10 38.216832 -108.055569 19 31369ft 517kts
02-Sep-18 13:11 38.345783 -107.986558 24 31214ft 478kts
02-Sep-18 13:12 38.462423 -107.915930 24 29368ft 462kts
02-Sep-18 13:13 38.578596 -107.852663 21 27309ft 451kts
02-Sep-18 13:14 38.690327 -107.792858 25 24743ft 430kts
02-Sep-18 13:15 38.783409 -107.704967 41 22112ft 412kts
02-Sep-18 13:16 38.867693 -107.612144 41 20096ft 381kts
02-Sep-18 13:17 38.948323 -107.519544 43 20240ft 399kts
02-Sep-18 13:18 39.027162 -107.424305 42 20397ft 377kts
02-Sep-18 13:19 39.095464 -107.340458 43 20364ft 345kts
02-Sep-18 13:20 39.127337 -107.239413 80 19359ft 322kts
02-Sep-18 13:21 39.144010 -107.134020 80 17429ft 281kts
02-Sep-18 13:22 39.165926 -107.045763 72 15893ft 227kts
02-Sep-18 13:23 39.184282 -106.977791 73 13937ft 197kts
02-Sep-18 13:24 39.200453 -106.913481 74 12006ft 182kts
02-Sep-18 13:25 39.219554 -106.856407 24 10243ft 179kts
02-Sep-18 13:26 39.266272 -106.868328 313 8752ft 167kts
02-Sep-18 13:27 39.239702 -106.875406 159 7731ft 162kts
02-Sep-18 13:29 39.199246 -106.854228 158 9297ft 156kts
02-Sep-18 13:30 39.158575 -106.841223 176 10714ft 155kts
02-Sep-18 13:31 39.123416 -106.814366 102 12068ft 168kts
02-Sep-18 13:32 39.159758 -106.796683 332 12129ft 175kts
02-Sep-18 13:33 39.201499 -106.824019 332 10724ft 166kts
02-Sep-18 13:34 39.243916 -106.847230 343 9703ft 163kts
02-Sep-18 13:35 39.253281 -106.878923 182 8728ft 154kts
02-Sep-18 13:36 39.219307 -106.867007 159 7785ft 47kts
02-Sep-18 13:37 39.217032 -106.864938 37 7785ft 0kts
02-Sep-18 13:38 39.218066 -106.865199 338 7785ft 12kts
02-Sep-18 13:39 39.219241 -106.864804 73 7785ft 0kts

Navigation Log

Ident Type
Flight plan parsing failed, navigation log unavailable